Time;durP1;ratioP1;P1;durP2;ratioP2;P2;SDS_P1;SDS_P2;PMS_P1;PMS_P2;Temp;Humidity;BMP_temperature;BMP_pressure;BME280_temperature;BME280_humidity;BME280_pressure;Samples;Min_cycle;Max_cycle;Signal;HPM_P1;HPM_P2
2023/06/01 00:01:33;;;;;;;12.27;5.72;;;;;;;;;;5113457;28;20521;-76
2023/06/01 00:03:59;;;;;;;10.57;5.20;;;;;;;;;;5114127;28;20370;-75
2023/06/01 00:06:28;;;;;;;12.45;5.30;;;;;;;;;;5113772;28;20464;-74
2023/06/01 00:08:53;;;;;;;12.65;5.47;;;;;;;;;;5096102;28;20020;-74
2023/06/01 00:11:20;;;;;;;9.15;5.30;;;;;;;;;;5113824;28;20056;-75
2023/06/01 00:13:54;;;;;;;10.82;5.13;;;;;;;;;;5113466;28;20020;-74
2023/06/01 00:16:30;;;;;;;13.80;5.22;;;;;;;;;;5113621;28;20064;-74
2023/06/01 00:19:00;;;;;;;10.20;4.80;;;;;;;;;;5113529;28;20042;-74
2023/06/01 00:21:25;;;;;;;9.25;4.93;;;;;;;;;;5095749;28;20132;-75
2023/06/01 00:23:51;;;;;;;10.00;5.43;;;;;;;;;;5113057;28;20073;-74
2023/06/01 00:26:17;;;;;;;11.32;5.10;;;;;;;;;;5113287;28;20031;-74
2023/06/01 00:28:43;;;;;;;9.40;4.93;;;;;;;;;;5113338;28;20031;-74
2023/06/01 00:31:09;;;;;;;9.27;5.55;;;;;;;;;;5113228;28;20469;-73
2023/06/01 00:33:34;;;;;;;8.25;4.75;;;;;;;;;;5113574;28;20053;-74
2023/06/01 00:35:59;;;;;;;6.50;4.40;;;;;;;;;;5113779;28;20019;-76
2023/06/01 00:38:24;;;;;;;9.02;4.72;;;;;;;;;;5113516;28;20303;-74
2023/06/01 00:40:51;;;;;;;6.57;4.47;;;;;;;;;;5095226;28;20110;-74
2023/06/01 00:43:19;;;;;;;8.75;5.03;;;;;;;;;;5113385;28;20388;-73
2023/06/01 00:45:46;;;;;;;13.52;5.32;;;;;;;;;;5113602;28;20423;-75
2023/06/01 00:48:12;;;;;;;11.80;5.25;;;;;;;;;;5113565;28;20043;-74
2023/06/01 00:50:37;;;;;;;7.07;4.88;;;;;;;;;;5097045;28;20041;-74
2023/06/01 00:53:06;;;;;;;10.63;4.80;;;;;;;;;;5117471;28;20091;-75
2023/06/01 00:55:31;;;;;;;8.98;4.50;;;;;;;;;;5117507;28;20036;-75
2023/06/01 00:57:58;;;;;;;8.15;5.05;;;;;;;;;;5117129;28;20080;-75
2023/06/01 01:00:26;;;;;;;8.80;4.38;;;;;;;;;;5086129;28;20045;-74
2023/06/01 01:02:52;;;;;;;10.18;4.85;;;;;;;;;;5076177;28;20086;-75
2023/06/01 01:05:19;;;;;;;12.38;4.82;;;;;;;;;;5076115;28;20056;-74
2023/06/01 01:07:47;;;;;;;9.65;4.25;;;;;;;;;;5075349;28;20027;-74
2023/06/01 01:10:33;;;;;;;14.77;5.00;;;;;;;;;;5075281;28;20021;-75
2023/06/01 01:13:06;;;;;;;8.88;4.45;;;;;;;;;;5074903;28;20020;-75
2023/06/01 01:15:41;;;;;;;7.38;4.07;;;;;;;;;;5076010;28;20054;-76
2023/06/01 01:18:23;;;;;;;14.35;5.47;;;;;;;;;;5075186;28;20031;-74
2023/06/01 01:20:53;;;;;;;10.90;4.18;;;;;;;;;;5075231;28;20016;-74
2023/06/01 01:23:25;;;;;;;7.72;3.97;;;;;;;;;;5075037;28;20033;-73
2023/06/01 01:26:00;;;;;;;9.00;4.35;;;;;;;;;;5074782;28;20074;-75
2023/06/01 01:28:29;;;;;;;14.35;5.05;;;;;;;;;;5074634;28;20021;-74
2023/06/01 01:31:22;;;;;;;11.20;4.65;;;;;;;;;;5074718;28;20095;-76
2023/06/01 01:33:47;;;;;;;9.43;4.00;;;;;;;;;;5074602;28;20021;-74
2023/06/01 01:36:14;;;;;;;8.55;4.28;;;;;;;;;;5073631;28;20029;-75
2023/06/01 01:38:39;;;;;;;8.55;4.43;;;;;;;;;;5076104;28;20030;-75
2023/06/01 01:41:06;;;;;;;10.60;4.63;;;;;;;;;;5076289;28;20028;-75
2023/06/01 01:43:32;;;;;;;7.18;4.63;;;;;;;;;;5076316;28;20021;-76
2023/06/01 01:46:18;;;;;;;9.60;4.78;;;;;;;;;;5075743;28;20463;-75
2023/06/01 01:48:46;;;;;;;7.95;4.78;;;;;;;;;;5075269;28;20115;-75
2023/06/01 01:51:16;;;;;;;7.93;4.63;;;;;;;;;;5075751;28;20052;-75
2023/06/01 01:53:42;;;;;;;11.65;4.75;;;;;;;;;;5075469;28;20017;-74
2023/06/01 01:56:08;;;;;;;10.65;4.85;;;;;;;;;;5075846;28;20024;-73
2023/06/01 01:58:34;;;;;;;8.70;4.53;;;;;;;;;;5074436;28;20028;-73
2023/06/01 02:01:01;;;;;;;9.13;4.80;;;;;;;;;;5073389;28;20386;-75
2023/06/01 02:03:27;;;;;;;9.90;4.78;;;;;;;;;;5075253;28;20538;-74
2023/06/01 02:05:52;;;;;;;10.32;4.32;;;;;;;;;;5075314;28;20127;-75
2023/06/01 02:08:18;;;;;;;9.07;4.13;;;;;;;;;;5075470;28;20028;-74
2023/06/01 02:10:44;;;;;;;11.07;4.97;;;;;;;;;;5075259;28;20017;-74
2023/06/01 02:13:09;;;;;;;10.38;4.43;;;;;;;;;;5075563;28;20042;-75
2023/06/01 02:15:35;;;;;;;10.82;5.10;;;;;;;;;;5073941;28;20204;-74
2023/06/01 02:18:02;;;;;;;6.57;4.68;;;;;;;;;;5075037;28;20024;-74
2023/06/01 02:20:27;;;;;;;12.55;4.35;;;;;;;;;;5074833;28;20095;-74
2023/06/01 02:22:54;;;;;;;7.60;4.82;;;;;;;;;;5074751;28;20023;-75
2023/06/01 02:25:19;;;;;;;12.23;5.28;;;;;;;;;;5075233;28;20025;-74
2023/06/01 02:27:45;;;;;;;8.55;5.03;;;;;;;;;;5075149;28;20027;-74
2023/06/01 02:30:11;;;;;;;9.27;5.03;;;;;;;;;;5073510;28;20099;-75
2023/06/01 02:32:37;;;;;;;7.07;4.45;;;;;;;;;;5074807;28;20053;-74
2023/06/01 02:35:03;;;;;;;11.32;4.80;;;;;;;;;;5074591;28;20084;-74
2023/06/01 02:37:28;;;;;;;8.77;4.53;;;;;;;;;;5074839;28;20103;-75
2023/06/01 02:39:55;;;;;;;8.63;4.70;;;;;;;;;;5074485;28;20536;-74
2023/06/01 02:42:20;;;;;;;7.45;4.53;;;;;;;;;;5074738;28;20012;-74
2023/06/01 02:44:45;;;;;;;10.93;3.80;;;;;;;;;;5074694;28;20345;-74
2023/06/01 02:47:10;;;;;;;8.93;4.95;;;;;;;;;;5074332;28;20281;-74
2023/06/01 02:49:36;;;;;;;8.57;4.73;;;;;;;;;;5074528;28;20461;-74
2023/06/01 02:52:03;;;;;;;5.47;4.22;;;;;;;;;;5074482;28;20346;-74
2023/06/01 02:54:30;;;;;;;8.20;4.70;;;;;;;;;;5074463;28;20034;-75
2023/06/01 02:56:55;;;;;;;9.80;4.30;;;;;;;;;;5074324;28;20019;-74
2023/06/01 02:59:22;;;;;;;9.48;4.45;;;;;;;;;;5074290;28;20024;-73
2023/06/01 03:01:47;;;;;;;7.70;4.30;;;;;;;;;;5114765;28;20020;-75
2023/06/01 03:04:14;;;;;;;6.57;3.80;;;;;;;;;;5114640;28;20023;-75
2023/06/01 03:06:40;;;;;;;6.13;4.25;;;;;;;;;;5114537;28;20037;-74
2023/06/01 03:09:15;;;;;;;10.00;4.47;;;;;;;;;;5114533;28;20066;-74
2023/06/01 03:11:40;;;;;;;6.65;4.13;;;;;;;;;;5114458;28;20429;-75
2023/06/01 03:14:06;;;;;;;7.05;4.95;;;;;;;;;;5113694;28;20459;-75
2023/06/01 03:16:31;;;;;;;8.57;4.90;;;;;;;;;;5113724;28;20071;-74
2023/06/01 03:18:58;;;;;;;15.27;4.83;;;;;;;;;;5114625;28;20269;-74
2023/06/01 03:21:24;;;;;;;6.05;4.00;;;;;;;;;;5096662;28;20269;-76
2023/06/01 03:23:50;;;;;;;8.43;4.20;;;;;;;;;;5114504;28;20034;-75
2023/06/01 03:26:18;;;;;;;11.52;4.45;;;;;;;;;;5096048;28;20118;-74
2023/06/01 03:28:44;;;;;;;10.50;5.30;;;;;;;;;;5114568;28;20024;-76
2023/06/01 03:31:11;;;;;;;5.93;4.15;;;;;;;;;;5113847;28;20464;-75
2023/06/01 03:33:36;;;;;;;6.28;3.70;;;;;;;;;;5096011;28;20447;-74
2023/06/01 03:36:02;;;;;;;8.57;3.47;;;;;;;;;;5114783;28;20027;-75
2023/06/01 03:38:28;;;;;;;10.20;4.00;;;;;;;;;;5114338;28;20019;-74
2023/06/01 03:40:53;;;;;;;8.10;4.13;;;;;;;;;;5096194;28;20029;-75
2023/06/01 03:43:20;;;;;;;7.00;4.13;;;;;;;;;;5114172;28;20463;-74
2023/06/01 03:45:47;;;;;;;6.80;3.53;;;;;;;;;;5114117;28;20034;-75
2023/06/01 03:48:13;;;;;;;9.55;4.40;;;;;;;;;;5113877;28;20058;-75
2023/06/01 03:50:39;;;;;;;4.50;3.75;;;;;;;;;;5114175;28;20090;-74
2023/06/01 03:53:05;;;;;;;12.40;5.10;;;;;;;;;;5114069;28;20460;-75
2023/06/01 03:55:32;;;;;;;15.07;5.15;;;;;;;;;;5113862;28;20023;-75
2023/06/01 03:58:02;;;;;;;9.98;4.30;;;;;;;;;;5113834;28;20045;-74
2023/06/01 04:00:29;;;;;;;8.68;4.60;;;;;;;;;;5113786;28;20051;-74
2023/06/01 04:02:56;;;;;;;10.93;4.45;;;;;;;;;;5095633;28;20084;-74
2023/06/01 04:05:24;;;;;;;10.02;4.18;;;;;;;;;;5095529;28;20024;-75
2023/06/01 04:07:52;;;;;;;12.00;4.13;;;;;;;;;;5114188;28;20026;-75
2023/06/01 04:10:18;;;;;;;7.65;4.43;;;;;;;;;;5113996;28;20125;-74
2023/06/01 04:12:53;;;;;;;10.27;4.53;;;;;;;;;;5113723;28;20480;-74
2023/06/01 04:15:19;;;;;;;10.25;5.30;;;;;;;;;;5113915;28;20016;-76
2023/06/01 04:17:45;;;;;;;10.88;5.18;;;;;;;;;;5095857;28;20016;-75
2023/06/01 04:20:15;;;;;;;9.15;4.20;;;;;;;;;;5095752;28;20117;-75
2023/06/01 04:22:41;;;;;;;11.63;4.50;;;;;;;;;;5114042;28;20051;-76
2023/06/01 04:25:16;;;;;;;8.50;4.72;;;;;;;;;;5098380;28;20027;-75
2023/06/01 04:27:59;;;;;;;10.40;4.55;;;;;;;;;;5117719;28;20024;-75
2023/06/01 04:30:26;;;;;;;13.57;4.72;;;;;;;;;;5117895;28;20077;-76
2023/06/01 04:32:53;;;;;;;11.70;4.38;;;;;;;;;;5118116;28;20090;-75
2023/06/01 04:35:20;;;;;;;15.98;5.47;;;;;;;;;;5117665;28;20012;-76
2023/06/01 04:37:46;;;;;;;15.20;5.68;;;;;;;;;;5117580;28;20126;-75
2023/06/01 04:40:13;;;;;;;6.18;4.45;;;;;;;;;;5117552;28;20379;-76
2023/06/01 04:42:41;;;;;;;8.30;4.60;;;;;;;;;;5117767;28;20069;-75
2023/06/01 04:45:09;;;;;;;10.73;4.35;;;;;;;;;;5117687;28;20102;-75
2023/06/01 04:47:39;;;;;;;8.07;4.05;;;;;;;;;;5099478;28;20028;-76
2023/06/01 04:50:10;;;;;;;12.95;4.35;;;;;;;;;;5117776;28;20121;-73
2023/06/01 04:52:49;;;;;;;12.82;5.15;;;;;;;;;;5099183;28;20026;-73
2023/06/01 04:55:18;;;;;;;12.27;4.85;;;;;;;;;;5117090;28;20070;-74
2023/06/01 04:57:43;;;;;;;9.68;4.78;;;;;;;;;;5117105;28;20023;-71
2023/06/01 05:00:13;;;;;;;10.40;4.38;;;;;;;;;;5117110;28;20537;-73
2023/06/01 05:02:48;;;;;;;9.60;4.13;;;;;;;;;;5116903;28;20028;-69
2023/06/01 05:05:22;;;;;;;15.70;5.15;;;;;;;;;;5116846;28;20024;-70
2023/06/01 05:07:48;;;;;;;11.02;4.55;;;;;;;;;;5116844;28;20102;-70
2023/06/01 05:10:13;;;;;;;9.80;4.50;;;;;;;;;;5117607;28;20123;-73
2023/06/01 05:12:39;;;;;;;13.48;5.20;;;;;;;;;;5117152;28;20372;-75
2023/06/01 05:15:06;;;;;;;17.20;5.63;;;;;;;;;;5116521;28;20023;-74
2023/06/01 05:17:31;;;;;;;28.05;5.30;;;;;;;;;;5117231;28;20036;-74
2023/06/01 05:19:58;;;;;;;28.23;5.63;;;;;;;;;;5098480;28;20452;-76
2023/06/01 05:22:32;;;;;;;23.45;5.60;;;;;;;;;;5116218;28;20768;-72
2023/06/01 05:24:58;;;;;;;27.38;5.45;;;;;;;;;;5115056;28;20452;-73
2023/06/01 05:27:27;;;;;;;13.48;4.22;;;;;;;;;;5115577;28;20028;-71
2023/06/01 05:29:55;;;;;;;16.10;5.38;;;;;;;;;;5097315;28;20012;-73
2023/06/01 05:32:20;;;;;;;15.80;5.10;;;;;;;;;;5115565;28;20023;-73
2023/06/01 05:34:46;;;;;;;14.82;4.57;;;;;;;;;;5097381;28;20080;-73
2023/06/01 05:37:14;;;;;;;12.55;4.10;;;;;;;;;;5114949;28;20477;-72
2023/06/01 05:39:40;;;;;;;12.48;4.13;;;;;;;;;;5098113;28;20016;-72
2023/06/01 05:42:06;;;;;;;10.27;4.37;;;;;;;;;;5116234;28;20369;-72
2023/06/01 05:44:32;;;;;;;14.90;4.43;;;;;;;;;;5097609;28;20272;-72
2023/06/01 05:46:57;;;;;;;13.52;4.65;;;;;;;;;;5115086;28;20019;-71
2023/06/01 05:49:22;;;;;;;17.63;4.87;;;;;;;;;;5114763;28;20065;-71
2023/06/01 05:51:49;;;;;;;9.98;4.28;;;;;;;;;;5115547;28;20366;-72
2023/06/01 05:54:14;;;;;;;16.10;4.10;;;;;;;;;;5116091;28;20163;-73
2023/06/01 05:56:42;;;;;;;12.38;3.85;;;;;;;;;;5115923;28;20012;-71
2023/06/01 05:59:14;;;;;;;6.22;3.05;;;;;;;;;;5096528;28;20208;-73
2023/06/01 06:01:40;;;;;;;;;;;;;;;;;;5110826;27;20573;-73
2023/06/01 06:04:05;;;;;;;17.08;3.85;;;;;;;;;;5119159;27;19908;-72
2023/06/01 06:06:53;;;;;;;10.45;3.17;;;;;;;;;;5096339;28;20107;-72
2023/06/01 06:09:24;;;;;;;6.35;3.08;;;;;;;;;;5114550;28;20015;-73
2023/06/01 06:11:50;;;;;;;;;;;;;;;;;;5114845;28;20350;-73
2023/06/01 06:14:16;;;;;;;10.77;3.10;;;;;;;;;;5110995;28;20314;-73
2023/06/01 06:16:42;;;;;;;6.72;2.45;;;;;;;;;;5128429;27;20033;-74
2023/06/01 06:19:07;;;;;;;6.63;2.53;;;;;;;;;;5136049;27;20015;-73
2023/06/01 06:21:33;;;;;;;9.10;2.67;;;;;;;;;;5135996;27;20019;-75
2023/06/01 06:24:00;;;;;;;11.43;2.85;;;;;;;;;;5136231;27;20027;-73
2023/06/01 06:26:27;;;;;;;6.80;2.90;;;;;;;;;;5135995;27;20015;-73
2023/06/01 06:28:53;;;;;;;6.97;2.60;;;;;;;;;;5135724;27;20468;-73
2023/06/01 06:31:21;;;;;;;18.58;3.60;;;;;;;;;;5136150;27;20094;-72
2023/06/01 06:33:46;;;;;;;9.55;2.53;;;;;;;;;;5117611;27;20055;-72
2023/06/01 06:36:12;;;;;;;8.27;2.87;;;;;;;;;;5117593;27;20023;-73
2023/06/01 06:38:39;;;;;;;12.25;2.85;;;;;;;;;;5135533;27;20256;-72
2023/06/01 06:41:06;;;;;;;11.93;3.08;;;;;;;;;;5135487;27;20110;-72
2023/06/01 06:43:31;;;;;;;12.23;3.35;;;;;;;;;;5115851;27;20031;-74
2023/06/01 06:45:56;;;;;;;4.63;2.37;;;;;;;;;;5135133;27;20471;-73
2023/06/01 06:48:21;;;;;;;5.53;2.13;;;;;;;;;;5135559;27;20269;-72
2023/06/01 06:50:47;;;;;;;6.87;2.87;;;;;;;;;;5135312;27;20261;-74
2023/06/01 06:53:21;;;;;;;3.40;2.35;;;;;;;;;;5135047;27;20022;-75
2023/06/01 06:55:48;;;;;;;10.00;2.72;;;;;;;;;;5134374;27;20483;-76
2023/06/01 06:58:15;;;;;;;11.00;2.85;;;;;;;;;;5135283;27;20023;-75
2023/06/01 07:00:40;;;;;;;3.90;2.20;;;;;;;;;;5133606;27;20042;-73
2023/06/01 07:03:08;;;;;;;6.10;2.63;;;;;;;;;;5133991;27;20049;-74
2023/06/01 07:05:35;;;;;;;12.18;2.88;;;;;;;;;;5134229;27;20026;-77
2023/06/01 07:08:02;;;;;;;4.25;2.17;;;;;;;;;;5134836;27;20040;-74
2023/06/01 07:10:27;;;;;;;8.45;2.13;;;;;;;;;;5116528;28;20019;-75
2023/06/01 07:12:52;;;;;;;8.50;2.10;;;;;;;;;;5114199;28;20023;-77
2023/06/01 07:15:18;;;;;;;8.27;2.47;;;;;;;;;;5114384;28;20269;-76
2023/06/01 07:17:47;;;;;;;8.47;1.77;;;;;;;;;;5114468;28;20376;-78
2023/06/01 07:20:13;;;;;;;12.85;2.22;;;;;;;;;;5115454;28;20015;-79
2023/06/01 07:22:47;;;;;;;5.25;3.08;;;;;;;;;;5114952;28;20088;-78
2023/06/01 07:25:15;;;;;;;3.90;2.30;;;;;;;;;;5114839;28;20456;-78
2023/06/01 07:27:42;;;;;;;5.07;2.17;;;;;;;;;;5114431;28;20015;-76
2023/06/01 07:30:12;;;;;;;6.07;1.92;;;;;;;;;;5095887;28;20463;-79
2023/06/01 07:32:40;;;;;;;6.28;1.80;;;;;;;;;;5096486;28;20027;-73
2023/06/01 07:35:07;;;;;;;7.07;2.13;;;;;;;;;;5094229;28;20030;-80
2023/06/01 07:37:33;;;;;;;4.95;2.10;;;;;;;;;;5114402;28;20034;-78
2023/06/01 07:39:59;;;;;;;3.70;1.90;;;;;;;;;;5114022;28;20452;-76
2023/06/01 07:42:24;;;;;;;5.50;2.13;;;;;;;;;;5113512;28;20031;-73
2023/06/01 07:44:51;;;;;;;5.70;2.15;;;;;;;;;;5113602;28;20043;-74
2023/06/01 07:47:17;;;;;;;8.07;1.70;;;;;;;;;;5114038;28;20114;-74
2023/06/01 07:49:43;;;;;;;7.47;2.60;;;;;;;;;;5113632;28;20521;-76
2023/06/01 07:52:08;;;;;;;9.23;2.33;;;;;;;;;;5114031;28;20024;-74
2023/06/01 07:54:36;;;;;;;7.32;2.10;;;;;;;;;;5095763;28;20027;-76
2023/06/01 07:57:06;;;;;;;4.63;1.80;;;;;;;;;;5095693;28;20028;-75
2023/06/01 07:59:32;;;;;;;5.50;2.28;;;;;;;;;;5094766;28;20030;-75
2023/06/01 08:01:59;;;;;;;6.43;1.80;;;;;;;;;;5113700;28;20020;-74
2023/06/01 08:04:27;;;;;;;5.32;1.63;;;;;;;;;;5113854;28;20525;-69
2023/06/01 08:06:53;;;;;;;4.68;1.60;;;;;;;;;;5113965;28;20015;-74
2023/06/01 08:09:23;;;;;;;4.95;1.80;;;;;;;;;;5113771;28;20060;-75
2023/06/01 08:12:03;;;;;;;5.65;2.05;;;;;;;;;;5114129;28;20050;-74
2023/06/01 08:14:28;;;;;;;;;;;;;;;;;;5113906;28;20038;-73
2023/06/01 08:16:54;;;;;;;9.88;2.10;;;;;;;;;;5113871;28;19908;-72
2023/06/01 08:19:20;;;;;;;4.72;2.17;;;;;;;;;;5113923;28;20100;-70
2023/06/01 08:21:45;;;;;;;5.30;2.35;;;;;;;;;;5113966;28;20094;-69
2023/06/01 08:24:12;;;;;;;4.40;1.90;;;;;;;;;;5113606;28;20046;-75
2023/06/01 08:26:38;;;;;;;4.60;1.90;;;;;;;;;;5113020;28;20027;-68
2023/06/01 08:29:03;;;;;;;7.43;2.10;;;;;;;;;;5113617;28;20026;-72
2023/06/01 08:31:30;;;;;;;4.07;2.00;;;;;;;;;;5113734;28;20025;-73
2023/06/01 08:33:57;;;;;;;2.35;1.70;;;;;;;;;;5113341;28;20433;-71
2023/06/01 08:36:22;;;;;;;17.10;2.92;;;;;;;;;;5095201;28;20030;-76
2023/06/01 08:38:49;;;;;;;9.70;2.43;;;;;;;;;;5113948;28;20016;-73
2023/06/01 08:41:35;;;;;;;2.97;1.73;;;;;;;;;;5093257;28;20028;-72
2023/06/01 08:44:04;;;;;;;3.80;1.67;;;;;;;;;;5112675;28;20024;-72
2023/06/01 08:46:36;;;;;;;3.47;1.70;;;;;;;;;;5113175;28;20034;-72
2023/06/01 08:49:21;;;;;;;4.65;2.17;;;;;;;;;;5111532;28;20027;-71
2023/06/01 08:51:48;;;;;;;4.95;1.90;;;;;;;;;;5113129;28;20034;-74
2023/06/01 08:54:14;;;;;;;11.35;1.63;;;;;;;;;;5095053;28;20044;-70
2023/06/01 08:56:42;;;;;;;4.00;1.60;;;;;;;;;;5113131;28;20417;-74
2023/06/01 08:59:11;;;;;;;2.83;1.10;;;;;;;;;;5096213;28;20016;-77
2023/06/01 09:01:37;;;;;;;4.75;1.30;;;;;;;;;;5113126;28;20043;-76
2023/06/01 09:04:04;;;;;;;11.40;2.25;;;;;;;;;;5095157;28;20108;-75
2023/06/01 09:06:29;;;;;;;4.40;1.35;;;;;;;;;;5113447;28;20045;-74
2023/06/01 09:08:57;;;;;;;5.75;1.75;;;;;;;;;;5113028;28;20159;-76
2023/06/01 09:11:26;;;;;;;5.18;1.17;;;;;;;;;;5114744;28;20020;-76
2023/06/01 09:13:52;;;;;;;5.93;1.58;;;;;;;;;;5098826;28;20464;-74
2023/06/01 09:16:26;;;;;;;11.95;2.50;;;;;;;;;;5117061;28;20023;-72
2023/06/01 09:18:55;;;;;;;16.52;2.38;;;;;;;;;;5116377;28;20036;-73
2023/06/01 09:21:20;;;;;;;4.25;1.73;;;;;;;;;;5098567;28;20107;-75
2023/06/01 09:23:48;;;;;;;9.20;1.90;;;;;;;;;;5115863;28;20047;-77
2023/06/01 09:26:17;;;;;;;8.95;1.77;;;;;;;;;;5117212;28;20031;-75
2023/06/01 09:29:03;;;;;;;8.75;2.33;;;;;;;;;;5116850;28;20076;-75
2023/06/01 09:31:42;;;;;;;5.18;1.38;;;;;;;;;;5098426;28;20026;-68
2023/06/01 09:34:11;;;;;;;6.03;1.50;;;;;;;;;;5116463;28;20502;-69
2023/06/01 09:36:38;;;;;;;6.13;1.63;;;;;;;;;;5115682;28;20114;-68
2023/06/01 09:39:07;;;;;;;21.63;2.78;;;;;;;;;;5116605;28;20272;-71
2023/06/01 09:41:46;;;;;;;8.48;1.83;;;;;;;;;;5097488;28;20026;-69
2023/06/01 09:44:13;;;;;;;3.35;1.38;;;;;;;;;;5116133;28;20008;-71
2023/06/01 09:46:48;;;;;;;4.55;1.10;;;;;;;;;;5116131;28;20020;-71
2023/06/01 09:49:28;;;;;;;4.45;1.48;;;;;;;;;;5116711;28;20051;-72
2023/06/01 09:52:07;;;;;;;8.65;1.55;;;;;;;;;;5116334;28;20048;-71
2023/06/01 09:54:50;;;;;;;5.30;1.58;;;;;;;;;;5116128;28;20019;-70
2023/06/01 09:57:26;;;;;;;10.82;1.83;;;;;;;;;;5116316;28;20022;-68
2023/06/01 09:59:51;;;;;;;6.32;1.70;;;;;;;;;;5094195;28;20091;-71
2023/06/01 10:02:21;;;;;;;5.97;1.63;;;;;;;;;;5095860;28;20016;-70
2023/06/01 10:05:05;;;;;;;3.85;2.00;;;;;;;;;;5095584;28;20288;-69
2023/06/01 10:07:33;;;;;;;13.00;1.75;;;;;;;;;;5095426;28;20016;-70
2023/06/01 10:10:02;;;;;;;6.32;1.75;;;;;;;;;;5095547;28;20575;-70
2023/06/01 10:12:28;;;;;;;3.08;1.30;;;;;;;;;;5094504;28;20044;-70
2023/06/01 10:14:55;;;;;;;5.28;1.70;;;;;;;;;;5095835;28;20372;-70
2023/06/01 10:17:20;;;;;;;3.85;1.17;;;;;;;;;;5094087;28;20491;-71
2023/06/01 10:20:01;;;;;;;8.35;1.40;;;;;;;;;;5094046;28;20024;-70
2023/06/01 10:22:27;;;;;;;4.67;1.30;;;;;;;;;;5095064;28;20016;-69
2023/06/01 10:25:11;;;;;;;14.02;1.85;;;;;;;;;;5094641;28;20032;-70
2023/06/01 10:27:41;;;;;;;10.40;2.13;;;;;;;;;;5095312;28;20031;-68
2023/06/01 10:30:10;;;;;;;16.33;2.85;;;;;;;;;;5095409;28;20024;-70
2023/06/01 10:32:49;;;;;;;3.58;1.42;;;;;;;;;;5095297;28;20035;-70
2023/06/01 10:35:32;;;;;;;3.45;1.55;;;;;;;;;;5093940;28;20020;-69
2023/06/01 10:38:09;;;;;;;5.35;1.52;;;;;;;;;;5095017;28;20035;-69
2023/06/01 10:40:39;;;;;;;6.97;1.70;;;;;;;;;;5094829;28;20020;-71
2023/06/01 10:43:13;;;;;;;3.15;1.13;;;;;;;;;;5095113;28;20031;-70
2023/06/01 10:45:43;;;;;;;13.73;1.98;;;;;;;;;;5094964;28;20020;-73
2023/06/01 10:48:12;;;;;;;9.40;2.00;;;;;;;;;;5094114;28;20028;-70
2023/06/01 10:50:48;;;;;;;16.93;2.43;;;;;;;;;;5094926;28;20023;-71
2023/06/01 10:53:28;;;;;;;11.65;1.95;;;;;;;;;;5094768;28;20023;-68
2023/06/01 10:56:12;;;;;;;2.03;1.67;;;;;;;;;;5094531;28;20492;-70
2023/06/01 10:58:38;;;;;;;5.82;1.83;;;;;;;;;;5094860;28;20020;-70
2023/06/01 11:01:07;;;;;;;3.38;1.60;;;;;;;;;;5108514;28;20055;-69
2023/06/01 11:03:46;;;;;;;9.27;2.13;;;;;;;;;;5114805;28;20031;-73
2023/06/01 11:06:33;;;;;;;12.25;2.22;;;;;;;;;;5115077;28;20073;-78
2023/06/01 11:09:00;;;;;;;7.15;1.73;;;;;;;;;;5115177;28;20034;-76
2023/06/01 11:11:45;;;;;;;17.55;2.35;;;;;;;;;;5096582;28;20020;-74
2023/06/01 11:14:11;;;;;;;6.32;1.92;;;;;;;;;;5114757;28;20112;-77
2023/06/01 11:16:37;;;;;;;4.50;1.58;;;;;;;;;;5096369;28;20019;-78
2023/06/01 11:19:06;;;;;;;1.98;1.48;;;;;;;;;;5114985;28;20045;-75
2023/06/01 11:21:46;;;;;;;9.43;1.70;;;;;;;;;;5114432;28;20023;-72
2023/06/01 11:24:16;;;;;;;3.13;1.50;;;;;;;;;;5096254;28;20019;-73
2023/06/01 11:26:49;;;;;;;2.63;1.30;;;;;;;;;;5097163;28;20516;-79
2023/06/01 11:29:25;;;;;;;5.82;1.67;;;;;;;;;;5115008;28;20456;-77
2023/06/01 11:31:54;;;;;;;26.05;2.80;;;;;;;;;;5114709;28;20023;-71
2023/06/01 11:34:30;;;;;;;8.60;1.67;;;;;;;;;;5113416;28;20020;-71
2023/06/01 11:36:58;;;;;;;4.68;1.88;;;;;;;;;;5095734;28;20465;-72
2023/06/01 11:39:46;;;;;;;5.97;2.13;;;;;;;;;;5114214;28;20024;-68
2023/06/01 11:42:36;;;;;;;3.35;1.52;;;;;;;;;;5111147;28;20027;-69
2023/06/01 11:45:06;;;;;;;10.00;2.13;;;;;;;;;;5110942;28;20095;-69
2023/06/01 11:47:33;;;;;;;17.25;3.55;;;;;;;;;;5114095;28;20039;-71
2023/06/01 11:50:00;;;;;;;7.68;2.10;;;;;;;;;;5114271;28;20384;-70
2023/06/01 11:52:26;;;;;;;7.50;1.65;;;;;;;;;;5114143;28;20053;-77
2023/06/01 11:55:02;;;;;;;30.42;3.30;;;;;;;;;;5113994;28;20367;-77
2023/06/01 11:57:48;;;;;;;10.88;2.33;;;;;;;;;;5114218;28;20375;-75
2023/06/01 12:00:14;;;;;;;8.07;2.00;;;;;;;;;;5113233;28;20484;-76
2023/06/01 12:02:42;;;;;;;11.68;2.15;;;;;;;;;;5114081;28;20027;-75
2023/06/01 12:05:09;;;;;;;6.32;2.10;;;;;;;;;;5114402;28;20095;-75
2023/06/01 12:08:01;;;;;;;8.85;2.10;;;;;;;;;;5114196;28;20024;-75
2023/06/01 12:10:27;;;;;;;;;;;;;;;;;;5114460;28;20102;-76
2023/06/01 12:12:53;;;;;;;7.70;2.47;;;;;;;;;;5114092;28;19925;-77
2023/06/01 12:15:20;;;;;;;6.22;1.88;;;;;;;;;;5114033;28;20496;-74
2023/06/01 12:17:49;;;;;;;9.98;1.90;;;;;;;;;;5113826;28;20023;-74
2023/06/01 12:20:39;;;;;;;4.85;2.10;;;;;;;;;;5113838;28;20067;-74
2023/06/01 12:23:14;;;;;;;2.40;1.70;;;;;;;;;;5101860;28;20051;-75
2023/06/01 12:26:08;;;;;;;10.05;2.90;;;;;;;;;;5113761;28;20476;-75
2023/06/01 12:28:53;;;;;;;11.02;2.60;;;;;;;;;;5031042;28;20029;-75
2023/06/01 12:31:19;;;;;;;5.20;2.20;;;;;;;;;;5094957;28;20019;-72
2023/06/01 12:33:45;;;;;;;4.28;1.58;;;;;;;;;;5095298;28;20031;-70
2023/06/01 12:36:28;;;;;;;6.88;2.47;;;;;;;;;;5095554;28;20089;-73
2023/06/01 12:38:55;;;;;;;9.95;2.33;;;;;;;;;;5078435;28;20444;-74
2023/06/01 12:41:21;;;;;;;3.90;1.80;;;;;;;;;;5113776;28;20031;-74
2023/06/01 12:43:55;;;;;;;7.07;2.25;;;;;;;;;;5112718;28;20020;-72
2023/06/01 12:46:24;;;;;;;5.13;1.80;;;;;;;;;;5115764;28;20043;-73
2023/06/01 12:48:50;;;;;;;9.10;2.60;;;;;;;;;;5097940;28;20460;-72
2023/06/01 12:51:21;;;;;;;9.20;2.22;;;;;;;;;;5116052;28;20024;-71
2023/06/01 12:53:47;;;;;;;10.07;2.53;;;;;;;;;;5098070;28;20026;-74
2023/06/01 12:56:13;;;;;;;8.18;2.22;;;;;;;;;;5116234;28;20099;-72
2023/06/01 12:58:39;;;;;;;13.50;2.50;;;;;;;;;;5115900;28;20008;-71
2023/06/01 13:01:05;;;;;;;7.43;2.22;;;;;;;;;;5115782;28;20153;-72
2023/06/01 13:03:30;;;;;;;8.38;2.60;;;;;;;;;;5116375;28;20072;-70
2023/06/01 13:05:55;;;;;;;6.38;2.17;;;;;;;;;;5117336;28;20016;-70
2023/06/01 13:08:22;;;;;;;34.53;4.55;;;;;;;;;;5098786;28;20047;-68
2023/06/01 13:11:02;;;;;;;18.77;3.20;;;;;;;;;;5098542;28;20084;-69
2023/06/01 13:13:29;;;;;;;12.07;2.47;;;;;;;;;;5117093;28;20016;-70
2023/06/01 13:15:55;;;;;;;7.15;2.47;;;;;;;;;;5117291;28;20019;-69
2023/06/01 13:18:21;;;;;;;10.32;2.33;;;;;;;;;;5098215;28;20527;-69
2023/06/01 13:20:48;;;;;;;22.42;3.13;;;;;;;;;;5098374;28;20115;-67
2023/06/01 13:23:13;;;;;;;52.63;4.63;;;;;;;;;;5116787;28;20020;-68
2023/06/01 13:25:39;;;;;;;6.37;2.27;;;;;;;;;;5116753;28;20479;-69
2023/06/01 13:28:05;;;;;;;25.00;3.63;;;;;;;;;;5116698;28;20295;-70
2023/06/01 13:30:33;;;;;;;12.77;3.13;;;;;;;;;;5116947;28;20016;-69
2023/06/01 13:32:59;;;;;;;16.48;2.72;;;;;;;;;;5116867;28;20026;-69
2023/06/01 13:35:24;;;;;;;5.75;2.15;;;;;;;;;;5098226;28;20016;-69
2023/06/01 13:37:51;;;;;;;12.02;2.78;;;;;;;;;;5097997;28;20024;-70
2023/06/01 13:40:24;;;;;;;5.55;2.45;;;;;;;;;;5117135;28;20098;-68
2023/06/01 13:43:05;;;;;;;4.18;2.25;;;;;;;;;;5116618;28;20080;-68
2023/06/01 13:45:31;;;;;;;6.25;2.53;;;;;;;;;;5116505;28;20019;-68
2023/06/01 13:47:59;;;;;;;12.93;2.50;;;;;;;;;;5113076;28;20027;-69
2023/06/01 13:50:24;;;;;;;7.60;2.35;;;;;;;;;;5083392;28;20093;-68
2023/06/01 13:52:50;;;;;;;6.03;2.70;;;;;;;;;;5109220;28;20019;-69
2023/06/01 13:55:17;;;;;;;7.50;2.40;;;;;;;;;;5116075;28;20614;-71
2023/06/01 13:57:42;;;;;;;9.40;2.38;;;;;;;;;;5115259;28;20026;-69
2023/06/01 14:00:12;;;;;;;13.53;2.50;;;;;;;;;;5115896;28;20044;-71
2023/06/01 14:02:37;;;;;;;15.80;3.10;;;;;;;;;;5116390;28;20342;-72
2023/06/01 14:05:04;;;;;;;14.35;3.10;;;;;;;;;;5112794;28;20438;-70
2023/06/01 14:07:30;;;;;;;11.77;2.72;;;;;;;;;;5097437;28;20460;-73
2023/06/01 14:09:56;;;;;;;7.67;2.90;;;;;;;;;;5115902;28;20073;-71
2023/06/01 14:12:21;;;;;;;12.43;3.13;;;;;;;;;;5116017;28;20464;-71
2023/06/01 14:14:48;;;;;;;6.50;2.25;;;;;;;;;;5116203;28;20138;-71
2023/06/01 14:17:14;;;;;;;8.18;2.58;;;;;;;;;;5115964;28;20072;-70
2023/06/01 14:19:41;;;;;;;9.93;2.97;;;;;;;;;;5116174;28;20103;-71
2023/06/01 14:22:06;;;;;;;8.73;2.67;;;;;;;;;;5115768;28;20032;-70
2023/06/01 14:24:31;;;;;;;9.23;2.45;;;;;;;;;;5115780;28;20020;-70
2023/06/01 14:26:57;;;;;;;8.10;2.83;;;;;;;;;;5115567;28;20072;-69
2023/06/01 14:29:25;;;;;;;17.13;3.75;;;;;;;;;;5115625;28;20047;-72
2023/06/01 14:31:50;;;;;;;9.02;2.67;;;;;;;;;;5115506;28;20027;-71
2023/06/01 14:34:15;;;;;;;7.63;2.40;;;;;;;;;;5115553;28;20024;-70
2023/06/01 14:36:42;;;;;;;10.53;2.60;;;;;;;;;;5115549;28;20031;-69
2023/06/01 14:39:07;;;;;;;11.40;2.40;;;;;;;;;;5115407;28;20265;-69
2023/06/01 14:41:32;;;;;;;4.03;2.00;;;;;;;;;;5114316;28;20160;-68
2023/06/01 14:43:59;;;;;;;8.27;2.50;;;;;;;;;;5096690;28;20027;-70
2023/06/01 14:46:26;;;;;;;6.35;3.00;;;;;;;;;;5114421;28;20050;-71
2023/06/01 14:48:51;;;;;;;4.60;2.40;;;;;;;;;;5096149;28;20461;-70